Aviation Digital Data Service (ADDS)

Output produced by METARs form (1704 UTC 24 July 2014)
found at http://www.aviationweather.gov/adds/metars/
 
KATL 241600Z 2416/2518 26008KT P6SM SCT030 SCT100 
     FM241700 27009G18KT P6SM VCSH BKN050 
     TEMPO 2418/2422 5SM -TSRA BR BKN035CB 
     FM242200 30007KT P6SM VCSH SCT050 BKN100 
     FM250200 29004KT P6SM SCT120 BKN250 
     FM251500 28006KT P6SM SCT040